createdAt,value
2023-03-02T00:01:25.984Z,1.60
2023-03-02T00:03:53.062Z,1.60
2023-03-02T00:06:19.989Z,1.60
2023-03-02T00:08:47.213Z,1.50
2023-03-02T00:11:15.582Z,1.50
2023-03-02T00:13:42.909Z,1.40
2023-03-02T00:16:09.745Z,1.30
2023-03-02T00:18:36.424Z,1.20
2023-03-02T00:21:03.080Z,1.10
2023-03-02T00:23:29.787Z,1.10
2023-03-02T00:25:56.575Z,1.00
2023-03-02T00:28:23.342Z,1.10
2023-03-02T00:30:50.058Z,1.10
2023-03-02T00:33:16.803Z,1.10
2023-03-02T00:35:43.469Z,1.00
2023-03-02T00:38:10.254Z,1.00
2023-03-02T00:40:36.944Z,1.00
2023-03-02T00:43:03.917Z,1.00
2023-03-02T00:45:30.622Z,1.00
2023-03-02T00:47:58.289Z,1.00
2023-03-02T00:50:25.023Z,1.00
2023-03-02T00:52:51.701Z,1.00
2023-03-02T00:55:18.719Z,1.00
2023-03-02T00:57:54.774Z,1.00
2023-03-02T01:00:28.749Z,1.00
2023-03-02T01:02:59.278Z,1.00
2023-03-02T01:05:26.389Z,1.00
2023-03-02T01:07:52.979Z,1.00
2023-03-02T01:10:20.251Z,0.90
2023-03-02T01:12:46.940Z,0.90
2023-03-02T01:15:13.627Z,0.90
2023-03-02T01:17:41.242Z,0.90
2023-03-02T01:20:08.840Z,0.90
2023-03-02T01:22:35.714Z,0.90
2023-03-02T01:25:02.661Z,0.80
2023-03-02T01:27:30.558Z,0.80
2023-03-02T01:29:57.325Z,0.80
2023-03-02T01:32:24.173Z,0.80
2023-03-02T01:34:50.947Z,0.80
2023-03-02T01:37:17.954Z,0.70
2023-03-02T01:39:44.651Z,0.70
2023-03-02T01:42:11.319Z,0.70
2023-03-02T01:44:37.997Z,0.70
2023-03-02T01:47:06.753Z,0.70
2023-03-02T01:49:37.478Z,0.70
2023-03-02T01:52:06.832Z,0.70
2023-03-02T01:54:33.628Z,0.60
2023-03-02T01:57:03.256Z,0.60
2023-03-02T01:59:31.821Z,0.60
2023-03-02T02:02:00.633Z,0.60
2023-03-02T02:04:30.416Z,0.60
2023-03-02T02:07:01.576Z,0.70
2023-03-02T02:09:30.004Z,0.60
2023-03-02T02:11:56.775Z,0.60
2023-03-02T02:14:24.328Z,0.60
2023-03-02T02:16:51.538Z,0.60
2023-03-02T02:19:24.572Z,0.60
2023-03-02T02:21:51.425Z,0.60
2023-03-02T02:24:21.144Z,0.50
2023-03-02T02:26:49.907Z,0.60
2023-03-02T02:29:23.032Z,0.50
2023-03-02T02:31:53.415Z,0.50
2023-03-02T02:34:29.089Z,0.60
2023-03-02T02:36:59.193Z,0.50
2023-03-02T02:39:29.259Z,0.50
2023-03-02T02:41:58.186Z,0.50
2023-03-02T02:44:26.494Z,0.50
2023-03-02T02:46:53.908Z,0.50
2023-03-02T02:49:30.242Z,0.50
2023-03-02T02:51:57.482Z,0.40
2023-03-02T02:54:24.540Z,0.50
2023-03-02T02:56:53.349Z,0.50
2023-03-02T02:59:21.990Z,0.40
2023-03-02T03:01:49.663Z,0.40
2023-03-02T03:04:19.578Z,0.40
2023-03-02T03:06:50.848Z,0.40
2023-03-02T03:09:17.850Z,0.40
2023-03-02T03:11:49.071Z,0.30
2023-03-02T03:14:17.900Z,0.30
2023-03-02T03:16:47.572Z,0.30
2023-03-02T03:19:25.203Z,0.30
2023-03-02T03:21:57.236Z,0.20
2023-03-02T03:24:26.271Z,0.20
2023-03-02T03:26:56.859Z,0.20
2023-03-02T03:29:24.837Z,0.20
2023-03-02T03:31:54.331Z,0.20
2023-03-02T03:34:22.761Z,0.20
2023-03-02T03:36:49.533Z,0.20
2023-03-02T03:39:17.044Z,0.20
2023-03-02T03:41:43.962Z,0.30
2023-03-02T03:44:11.537Z,0.30
2023-03-02T03:46:41.792Z,0.30
2023-03-02T03:49:09.725Z,0.30
2023-03-02T03:51:36.855Z,0.30
2023-03-02T03:54:07.999Z,0.30
2023-03-02T03:56:39.702Z,0.30
2023-03-02T03:59:07.584Z,0.20
2023-03-02T04:01:51.527Z,0.10
2023-03-02T04:07:30.151Z,0.00
2023-03-02T04:10:03.839Z,0.00
2023-03-02T04:12:35.999Z,-0.10
2023-03-02T04:15:04.236Z,-0.10
2023-03-02T04:17:31.082Z,-0.10
2023-03-02T04:19:58.756Z,-0.10
2023-03-02T04:22:26.370Z,0.00
2023-03-02T04:24:55.445Z,0.00
2023-03-02T04:27:22.663Z,0.00
2023-03-02T04:29:52.939Z,-0.10
2023-03-02T04:32:20.250Z,0.00
2023-03-02T04:34:52.613Z,0.00
2023-03-02T04:37:19.369Z,-0.10
2023-03-02T04:39:50.117Z,-0.10
2023-03-02T04:42:20.256Z,-0.20
2023-03-02T04:44:47.090Z,-0.20
2023-03-02T04:47:13.927Z,-0.20
2023-03-02T04:49:40.809Z,-0.20
2023-03-02T04:52:07.524Z,-0.20
2023-03-02T04:54:34.219Z,-0.20
2023-03-02T04:57:01.037Z,-0.20
2023-03-02T04:59:28.615Z,-0.30
2023-03-02T05:01:56.559Z,-0.30
2023-03-02T05:04:23.440Z,-0.30
2023-03-02T05:06:50.198Z,-0.30
2023-03-02T05:09:17.070Z,-0.20
2023-03-02T05:11:43.694Z,-0.20
2023-03-02T05:14:11.399Z,-0.10
2023-03-02T05:16:39.394Z,-0.10
2023-03-02T05:19:07.241Z,-0.10
2023-03-02T05:21:34.352Z,-0.10
2023-03-02T05:24:01.083Z,-0.10
2023-03-02T05:26:27.824Z,-0.10
2023-03-02T05:28:54.474Z,-0.10
2023-03-02T05:31:23.487Z,-0.10
2023-03-02T05:33:50.401Z,-0.10
2023-03-02T05:36:19.290Z,-0.20
2023-03-02T05:38:47.171Z,-0.20
2023-03-02T05:41:13.858Z,-0.20
2023-03-02T05:43:40.657Z,-0.30
2023-03-02T05:46:07.719Z,-0.30
2023-03-02T05:48:34.566Z,-0.30
2023-03-02T05:51:01.255Z,-0.30
2023-03-02T05:53:28.175Z,-0.30
2023-03-02T05:55:54.906Z,-0.40
2023-03-02T05:58:21.742Z,-0.30
2023-03-02T06:00:48.801Z,-0.30
2023-03-02T06:03:16.401Z,-0.30
2023-03-02T06:05:43.161Z,-0.20
2023-03-02T06:08:09.941Z,-0.20
2023-03-02T06:10:36.581Z,-0.20
2023-03-02T06:13:03.332Z,-0.10
2023-03-02T06:15:30.082Z,-0.10
2023-03-02T06:17:57.457Z,-0.10
2023-03-02T06:20:24.254Z,0.00
2023-03-02T06:22:51.079Z,0.10
2023-03-02T06:25:19.485Z,0.10
2023-03-02T06:27:46.437Z,0.10
2023-03-02T06:30:14.429Z,0.20
2023-03-02T06:32:41.311Z,0.20
2023-03-02T06:35:08.713Z,0.20
2023-03-02T06:37:35.621Z,0.30
2023-03-02T06:40:02.492Z,0.30
2023-03-02T06:42:29.232Z,0.30
2023-03-02T06:44:55.949Z,0.40
2023-03-02T06:47:23.050Z,0.50
2023-03-02T06:49:49.792Z,0.50
2023-03-02T06:52:16.876Z,0.60
2023-03-02T06:54:43.612Z,0.70
2023-03-02T06:57:10.594Z,0.80
2023-03-02T06:59:37.190Z,0.80
2023-03-02T07:02:04.318Z,0.90
2023-03-02T07:04:32.130Z,1.00
2023-03-02T07:06:58.836Z,1.00
2023-03-02T07:09:25.560Z,1.10
2023-03-02T07:11:52.198Z,1.20
2023-03-02T07:14:18.861Z,1.30
2023-03-02T07:16:45.596Z,1.40
2023-03-02T07:19:14.005Z,1.50
2023-03-02T07:21:40.822Z,1.50
2023-03-02T07:24:08.041Z,1.60
2023-03-02T07:26:34.871Z,1.80
2023-03-02T07:29:01.823Z,1.90
2023-03-02T07:31:28.743Z,2.00
2023-03-02T07:33:55.400Z,2.10
2023-03-02T07:36:22.093Z,2.20
2023-03-02T07:38:48.860Z,2.30
2023-03-02T07:41:16.893Z,2.40
2023-03-02T07:43:43.805Z,2.50
2023-03-02T07:46:10.654Z,2.60
2023-03-02T07:48:37.540Z,2.70
2023-03-02T07:51:05.310Z,2.80
2023-03-02T07:53:32.172Z,2.90
2023-03-02T07:56:00.800Z,3.00
2023-03-02T07:58:27.671Z,3.10
2023-03-02T08:00:54.365Z,3.30
2023-03-02T08:03:21.165Z,3.40
2023-03-02T08:05:47.931Z,3.40
2023-03-02T08:08:14.740Z,3.60
2023-03-02T08:10:41.479Z,3.70
2023-03-02T08:13:08.246Z,4.00
2023-03-02T08:15:34.950Z,4.00
2023-03-02T08:18:01.812Z,4.20
2023-03-02T08:20:28.576Z,4.40
2023-03-02T08:22:55.340Z,4.40
2023-03-02T08:25:22.071Z,4.60
2023-03-02T08:27:48.756Z,4.70
2023-03-02T08:30:15.517Z,4.90
2023-03-02T08:32:42.295Z,5.00
2023-03-02T08:35:09.152Z,5.20
2023-03-02T08:37:35.792Z,5.30
2023-03-02T08:40:02.422Z,5.50
2023-03-02T08:42:29.092Z,5.70
2023-03-02T08:44:55.701Z,6.00
2023-03-02T08:47:22.415Z,6.30
2023-03-02T08:49:50.644Z,6.70
2023-03-02T08:52:17.480Z,6.90
2023-03-02T08:54:44.300Z,7.50
2023-03-02T08:57:11.884Z,8.30
2023-03-02T08:59:38.546Z,8.80
2023-03-02T09:02:05.401Z,9.50
2023-03-02T09:04:32.272Z,9.60
2023-03-02T09:06:59.003Z,9.90
2023-03-02T09:09:25.608Z,10.00
2023-03-02T09:11:52.330Z,10.40
2023-03-02T09:14:19.116Z,11.50
2023-03-02T09:16:46.838Z,12.60
2023-03-02T09:19:13.756Z,12.60
2023-03-02T09:21:40.392Z,12.30
2023-03-02T09:24:07.237Z,12.20
2023-03-02T09:26:34.148Z,12.50
2023-03-02T09:29:00.820Z,12.70
2023-03-02T09:31:30.119Z,13.40
2023-03-02T09:33:57.134Z,12.80
2023-03-02T09:36:24.723Z,13.60
2023-03-02T09:38:51.415Z,13.60
2023-03-02T09:41:21.102Z,13.90
2023-03-02T09:43:59.140Z,14.20
2023-03-02T09:46:30.364Z,15.00
2023-03-02T09:49:15.584Z,15.50
2023-03-02T09:51:42.196Z,15.60
2023-03-02T09:54:11.087Z,15.30
2023-03-02T09:56:48.253Z,15.00
2023-03-02T09:59:21.274Z,15.70
2023-03-02T10:01:53.186Z,15.90
2023-03-02T10:04:23.133Z,16.10
2023-03-02T10:06:53.527Z,16.40
2023-03-02T10:09:20.158Z,16.60
2023-03-02T10:11:54.781Z,16.80
2023-03-02T10:14:27.150Z,16.80
2023-03-02T10:16:59.749Z,16.80
2023-03-02T10:19:32.418Z,17.30
2023-03-02T10:22:11.128Z,17.20
2023-03-02T10:24:37.782Z,17.50
2023-03-02T10:27:26.103Z,18.20
2023-03-02T10:29:52.821Z,18.60
2023-03-02T10:32:39.821Z,18.20
2023-03-02T10:35:23.458Z,17.50
2023-03-02T10:38:08.924Z,17.90
2023-03-02T10:40:48.911Z,18.80
2023-03-02T10:43:22.196Z,19.00
2023-03-02T10:45:58.123Z,19.00
2023-03-02T10:48:24.749Z,19.10
2023-03-02T10:50:55.251Z,19.40
2023-03-02T10:53:22.179Z,20.10
2023-03-02T10:55:50.878Z,20.10
2023-03-02T10:58:31.099Z,19.80
2023-03-02T11:01:05.070Z,20.00
2023-03-02T11:03:32.677Z,20.10
2023-03-02T11:06:10.501Z,20.20
2023-03-02T11:08:37.174Z,20.70
2023-03-02T11:11:04.757Z,20.80
2023-03-02T11:13:38.825Z,20.60
2023-03-02T11:16:17.506Z,20.30
2023-03-02T11:18:49.642Z,20.10
2023-03-02T11:21:26.239Z,20.30
2023-03-02T11:23:59.012Z,20.20
2023-03-02T11:26:27.825Z,20.50
2023-03-02T11:29:03.741Z,20.10
2023-03-02T11:31:53.861Z,20.40
2023-03-02T11:34:29.222Z,20.40
2023-03-02T11:37:02.613Z,20.30
2023-03-02T11:39:41.119Z,20.40
2023-03-02T11:42:18.402Z,20.50
2023-03-02T11:44:46.056Z,20.50
2023-03-02T11:47:13.239Z,20.40
2023-03-02T11:49:43.930Z,21.20
2023-03-02T11:52:21.454Z,21.10
2023-03-02T11:55:04.422Z,21.50
2023-03-02T11:57:38.626Z,22.20
2023-03-02T12:00:13.554Z,22.00
2023-03-02T12:02:40.293Z,22.20
2023-03-02T12:05:22.194Z,23.20
2023-03-02T12:08:06.231Z,23.90
2023-03-02T12:10:40.353Z,23.80
2023-03-02T12:13:18.318Z,23.20
2023-03-02T12:15:52.996Z,23.10
2023-03-02T12:18:22.928Z,23.80
2023-03-02T12:21:04.069Z,23.50
2023-03-02T12:23:31.969Z,23.90
2023-03-02T12:26:06.882Z,24.30
2023-03-02T12:28:35.555Z,24.60
2023-03-02T12:31:03.708Z,24.40
2023-03-02T12:33:30.369Z,24.30
2023-03-02T12:36:05.379Z,24.00
2023-03-02T12:38:33.832Z,23.60
2023-03-02T12:41:12.621Z,23.60
2023-03-02T12:43:47.277Z,23.90
2023-03-02T12:46:19.962Z,24.80
2023-03-02T12:49:12.790Z,24.70
2023-03-02T12:52:00.746Z,23.60
2023-03-02T12:54:29.246Z,23.80
2023-03-02T12:57:09.013Z,23.90
2023-03-02T12:59:36.280Z,22.80
2023-03-02T13:02:04.173Z,22.00
2023-03-02T13:04:31.018Z,23.50
2023-03-02T13:06:57.772Z,23.90
2023-03-02T13:09:24.451Z,23.80
2023-03-02T13:11:54.728Z,24.30
2023-03-02T13:14:24.775Z,24.60
2023-03-02T13:16:58.746Z,23.90
2023-03-02T13:19:26.448Z,23.80
2023-03-02T13:21:53.238Z,24.30
2023-03-02T13:24:32.414Z,24.70
2023-03-02T13:27:06.862Z,24.00
2023-03-02T13:29:34.002Z,24.30
2023-03-02T13:32:27.007Z,23.80
2023-03-02T13:34:55.201Z,24.10
2023-03-02T13:37:24.379Z,23.60
2023-03-02T13:39:54.956Z,23.50
2023-03-02T13:42:26.203Z,23.70
2023-03-02T13:44:52.879Z,23.50
2023-03-02T13:47:23.840Z,24.00
2023-03-02T13:49:50.885Z,23.20
2023-03-02T13:52:22.173Z,23.80
2023-03-02T13:54:48.933Z,24.30
2023-03-02T13:57:17.629Z,24.80
2023-03-02T14:11:22.233Z,24.00
2023-03-02T14:13:53.792Z,23.60
2023-03-02T14:16:20.912Z,23.60
2023-03-02T14:18:48.569Z,23.60
2023-03-02T14:21:22.384Z,23.70
2023-03-02T14:23:49.368Z,23.00
2023-03-02T14:26:19.201Z,23.00
2023-03-02T14:28:47.444Z,24.00
2023-03-02T14:31:19.272Z,24.80
2023-03-02T14:33:46.013Z,24.80
2023-03-02T14:36:18.658Z,24.40
2023-03-02T14:38:45.408Z,24.00
2023-03-02T14:41:21.379Z,23.70
2023-03-02T14:43:48.466Z,23.60
2023-03-02T14:46:15.265Z,23.60
2023-03-02T14:48:41.989Z,24.00
2023-03-02T14:51:28.586Z,23.50
2023-03-02T14:53:56.309Z,23.70
2023-03-02T14:56:23.268Z,23.40
2023-03-02T14:58:50.732Z,22.30
2023-03-02T15:01:17.941Z,22.30
2023-03-02T15:03:45.128Z,22.60
2023-03-02T15:06:21.252Z,23.00
2023-03-02T15:08:48.195Z,22.40
2023-03-02T15:11:14.879Z,21.80
2023-03-02T15:13:41.549Z,21.80
2023-03-02T15:16:14.671Z,21.90
2023-03-02T15:18:41.489Z,21.50
2023-03-02T15:21:11.979Z,20.80
2023-03-02T15:23:39.789Z,20.40
2023-03-02T15:26:06.501Z,19.50
2023-03-02T15:28:33.162Z,19.70
2023-03-02T15:31:06.058Z,20.50
2023-03-02T15:33:32.846Z,20.30
2023-03-02T15:36:00.222Z,19.80
2023-03-02T15:38:27.197Z,18.80
2023-03-02T15:40:53.917Z,17.70
2023-03-02T15:43:20.754Z,16.70
2023-03-02T15:45:47.628Z,15.70
2023-03-02T15:48:14.454Z,15.20
2023-03-02T15:50:41.221Z,14.70
2023-03-02T15:53:07.965Z,14.50
2023-03-02T15:55:34.720Z,14.10
2023-03-02T15:58:01.464Z,13.60
2023-03-02T16:00:28.185Z,13.40
2023-03-02T16:02:54.946Z,13.20
2023-03-02T16:05:21.626Z,13.10
2023-03-02T16:07:48.460Z,12.90
2023-03-02T16:10:16.555Z,12.80
2023-03-02T16:12:43.503Z,12.70
2023-03-02T16:15:10.472Z,12.50
2023-03-02T16:17:37.422Z,12.30
2023-03-02T16:20:04.248Z,12.30
2023-03-02T16:22:30.913Z,12.20
2023-03-02T16:24:57.578Z,12.00
2023-03-02T16:27:25.042Z,11.90
2023-03-02T16:29:52.067Z,11.90
2023-03-02T16:32:18.935Z,11.80
2023-03-02T16:34:45.691Z,11.80
2023-03-02T16:37:12.704Z,11.60
2023-03-02T16:39:39.416Z,11.60
2023-03-02T16:42:06.360Z,11.50
2023-03-02T16:44:33.070Z,11.40
2023-03-02T16:46:59.824Z,11.40
2023-03-02T16:49:26.852Z,11.30
2023-03-02T16:51:56.327Z,11.20
2023-03-02T16:54:23.156Z,11.10
2023-03-02T16:56:49.993Z,11.00
2023-03-02T16:59:17.255Z,10.90
2023-03-02T17:01:44.299Z,10.80
2023-03-02T17:04:11.121Z,10.70
2023-03-02T17:06:38.861Z,10.60
2023-03-02T17:09:05.795Z,10.60
2023-03-02T17:11:32.719Z,10.60
2023-03-02T17:13:59.468Z,10.50
2023-03-02T17:16:26.672Z,10.40
2023-03-02T17:18:53.470Z,10.30
2023-03-02T17:21:20.524Z,10.20
2023-03-02T17:23:48.169Z,10.10
2023-03-02T17:26:15.962Z,10.10
2023-03-02T17:28:42.892Z,9.90
2023-03-02T17:31:09.739Z,9.80
2023-03-02T17:33:37.680Z,9.80
2023-03-02T17:36:09.422Z,9.70
2023-03-02T17:38:36.083Z,9.60
2023-03-02T17:41:06.536Z,9.50
2023-03-02T17:43:33.734Z,9.40
2023-03-02T17:46:15.000Z,9.30
2023-03-02T17:48:42.318Z,9.20
2023-03-02T17:51:09.134Z,9.20
2023-03-02T17:53:36.036Z,9.10
2023-03-02T17:56:02.791Z,9.00
2023-03-02T17:58:42.844Z,9.00
2023-03-02T18:01:11.845Z,8.90
2023-03-02T18:03:38.902Z,8.80
2023-03-02T18:06:05.978Z,8.80
2023-03-02T18:08:33.178Z,8.70
2023-03-02T18:11:00.369Z,8.60
2023-03-02T18:13:27.244Z,8.60
2023-03-02T18:15:53.979Z,8.50
2023-03-02T18:18:20.902Z,8.40
2023-03-02T18:20:47.708Z,8.40
2023-03-02T18:23:14.428Z,8.30
2023-03-02T18:25:41.318Z,8.30
2023-03-02T18:28:08.069Z,8.20
2023-03-02T18:30:34.904Z,8.10
2023-03-02T18:33:01.647Z,8.00
2023-03-02T18:35:28.364Z,8.00
2023-03-02T18:37:55.192Z,7.90
2023-03-02T18:40:21.946Z,7.90
2023-03-02T18:42:49.526Z,7.80
2023-03-02T18:45:27.219Z,7.70
2023-03-02T18:47:54.378Z,7.60
2023-03-02T18:50:21.514Z,7.50
2023-03-02T18:52:50.269Z,7.40
2023-03-02T18:55:17.259Z,7.30
2023-03-02T18:57:44.748Z,7.20
2023-03-02T19:00:25.086Z,7.00
2023-03-02T19:02:53.621Z,6.90
2023-03-02T19:05:20.691Z,6.80
2023-03-02T19:07:47.815Z,6.80
2023-03-02T19:10:15.300Z,6.90
2023-03-02T19:12:42.031Z,6.90
2023-03-02T19:15:10.394Z,6.90
2023-03-02T19:17:39.770Z,6.80
2023-03-02T19:20:07.434Z,6.80
2023-03-02T19:22:34.461Z,6.80
2023-03-02T19:25:01.199Z,6.80
2023-03-02T19:27:28.081Z,6.80
2023-03-02T19:29:54.896Z,6.70
2023-03-02T19:32:21.649Z,6.70
2023-03-02T19:34:48.432Z,6.60
2023-03-02T19:37:15.404Z,6.50
2023-03-02T19:39:42.276Z,6.50
2023-03-02T19:42:09.478Z,6.40
2023-03-02T19:44:36.527Z,6.30
2023-03-02T19:47:04.085Z,6.30
2023-03-02T19:49:30.792Z,6.30
2023-03-02T19:51:59.034Z,6.30
2023-03-02T19:54:26.356Z,6.30
2023-03-02T19:56:53.942Z,6.30
2023-03-02T19:59:21.949Z,6.30
2023-03-02T20:01:49.511Z,6.20
2023-03-02T20:04:16.625Z,6.10
2023-03-02T20:06:45.309Z,6.10
2023-03-02T20:09:14.727Z,6.00
2023-03-02T20:11:41.580Z,6.00
2023-03-02T20:14:08.606Z,6.00
2023-03-02T20:16:35.770Z,6.00
2023-03-02T20:19:03.253Z,6.00
2023-03-02T20:21:30.706Z,6.00
2023-03-02T20:23:57.445Z,5.90
2023-03-02T20:26:24.913Z,5.80
2023-03-02T20:28:52.747Z,5.80
2023-03-02T20:31:19.798Z,5.80
2023-03-02T20:33:48.661Z,5.80
2023-03-02T20:36:17.093Z,5.80
2023-03-02T20:38:46.434Z,5.80
2023-03-02T20:41:13.616Z,5.80
2023-03-02T20:43:40.364Z,5.70
2023-03-02T20:46:07.831Z,5.60
2023-03-02T20:48:35.639Z,5.60
2023-03-02T20:51:02.752Z,5.50
2023-03-02T20:53:29.644Z,5.50
2023-03-02T20:55:56.740Z,5.50
2023-03-02T20:58:23.436Z,5.50
2023-03-02T21:00:50.234Z,5.50
2023-03-02T21:03:17.331Z,5.50
2023-03-02T21:06:00.092Z,5.50
2023-03-02T21:08:27.195Z,5.40
2023-03-02T21:10:53.956Z,5.30
2023-03-02T21:13:22.817Z,5.30
2023-03-02T21:15:49.675Z,5.20
2023-03-02T21:18:16.361Z,5.20
2023-03-02T21:20:43.150Z,5.10
2023-03-02T21:23:11.067Z,5.00
2023-03-02T21:25:38.296Z,5.00
2023-03-02T21:28:05.664Z,4.90
2023-03-02T21:30:34.743Z,4.90
2023-03-02T21:33:01.908Z,4.80
2023-03-02T21:35:29.508Z,4.70
2023-03-02T21:37:58.348Z,4.70
2023-03-02T21:40:27.557Z,4.70
2023-03-02T21:42:54.718Z,4.70
2023-03-02T21:45:22.796Z,4.70
2023-03-02T21:47:49.922Z,4.70
2023-03-02T21:50:19.564Z,4.60
2023-03-02T21:52:46.698Z,4.60
2023-03-02T21:55:13.500Z,4.50
2023-03-02T21:57:40.354Z,4.60
2023-03-02T22:00:09.844Z,4.60
2023-03-02T22:02:37.249Z,4.50
2023-03-02T22:05:07.102Z,4.50
2023-03-02T22:07:33.713Z,4.50
2023-03-02T22:10:00.404Z,4.50
2023-03-02T22:12:27.131Z,4.50
2023-03-02T22:14:53.856Z,4.50
2023-03-02T22:17:21.797Z,4.50
2023-03-02T22:19:49.522Z,4.40
2023-03-02T22:22:18.422Z,4.40
2023-03-02T22:24:50.136Z,4.40
2023-03-02T22:27:20.914Z,4.40
2023-03-02T22:29:48.084Z,4.30
2023-03-02T22:32:17.650Z,4.20
2023-03-02T22:34:45.393Z,4.20
2023-03-02T22:37:13.349Z,4.10
2023-03-02T22:39:42.153Z,4.10
2023-03-02T22:42:08.997Z,4.10
2023-03-02T22:44:35.787Z,4.10
2023-03-02T22:47:05.592Z,4.00
2023-03-02T22:49:32.713Z,4.00
2023-03-02T22:52:03.255Z,3.90
2023-03-02T22:54:37.318Z,3.90
2023-03-02T22:57:13.667Z,3.90
2023-03-02T22:59:40.302Z,3.90
2023-03-02T23:02:14.702Z,4.00
2023-03-02T23:04:41.613Z,4.00
2023-03-02T23:07:12.726Z,3.80
2023-03-02T23:09:39.605Z,3.80
2023-03-02T23:12:32.814Z,3.80
2023-03-02T23:14:59.465Z,3.80
2023-03-02T23:17:29.114Z,3.80
2023-03-02T23:19:55.728Z,3.70
2023-03-02T23:22:22.426Z,3.70
2023-03-02T23:24:49.114Z,3.60
2023-03-02T23:27:15.772Z,3.60
2023-03-02T23:29:42.441Z,3.60
2023-03-02T23:32:09.831Z,3.50
2023-03-02T23:34:36.622Z,3.50
2023-03-02T23:37:03.265Z,3.50
2023-03-02T23:39:29.923Z,3.40
2023-03-02T23:41:57.092Z,3.40
2023-03-02T23:44:23.980Z,3.40
2023-03-02T23:46:50.660Z,3.40
2023-03-02T23:49:17.464Z,3.30
2023-03-02T23:51:44.626Z,3.30
2023-03-02T23:54:11.706Z,3.30
2023-03-02T23:56:38.591Z,3.30
2023-03-02T23:59:05.568Z,3.20
